Time;durP1;ratioP1;P1;durP2;ratioP2;P2;SDS_P1;SDS_P2;PMS_P1;PMS_P2;Temp;Humidity;BMP_temperature;BMP_pressure;BME280_temperature;BME280_humidity;BME280_pressure;Samples;Min_cycle;Max_cycle;Signal;HPM_P1;HPM_P2
2022/08/24 00:00:07;;;;;;;6.18;4.22;;;;;;;19.12;90.28;101704.59;10584646;27;20044;-74
2022/08/24 00:05:10;;;;;;;6.03;4.82;;;;;;;19.08;89.72;101700.78;10573395;28;20036;-74
2022/08/24 00:10:12;;;;;;;6.80;4.00;;;;;;;19.03;90.03;101705.66;10571008;28;20047;-74
2022/08/24 00:15:15;;;;;;;8.68;4.25;;;;;;;19.00;90.30;101706.28;10571950;28;20063;-73
2022/08/24 00:20:17;;;;;;;6.47;4.50;;;;;;;18.97;90.51;101700.19;10572616;28;20036;-74
2022/08/24 00:25:19;;;;;;;7.70;4.40;;;;;;;18.94;90.76;101697.22;10570902;28;20470;-74
2022/08/24 00:30:22;;;;;;;5.90;4.25;;;;;;;18.98;90.63;101698.25;10572098;28;20052;-74
2022/08/24 00:35:24;;;;;;;4.82;4.00;;;;;;;19.03;90.72;101702.88;10571489;28;20070;-73
2022/08/24 00:40:33;;;;;;;5.65;4.40;;;;;;;18.96;91.09;101704.13;10592812;28;20058;-74
2022/08/24 00:46:04;;;;;;;6.30;4.50;;;;;;;18.99;91.24;101697.09;10571827;28;20055;-74
2022/08/24 00:51:29;;;;;;;6.93;4.50;;;;;;;19.00;91.03;101704.31;10567155;28;20071;-74
2022/08/24 00:56:34;;;;;;;12.10;4.70;;;;;;;18.95;90.80;101705.25;10570192;28;20051;-74
2022/08/24 01:01:37;;;;;;;6.35;5.03;;;;;;;18.88;91.34;101715.16;10570544;28;20039;-73
2022/08/24 01:06:39;;;;;;;8.05;5.05;;;;;;;18.85;90.70;101716.59;10564868;28;20524;-73
2022/08/24 01:11:41;;;;;;;8.02;5.38;;;;;;;18.80;91.54;101722.28;10570092;28;20502;-73
2022/08/24 01:22:10;;;;;;;9.07;4.75;;;;;;;18.65;91.46;101703.94;10569601;28;20047;-74
2022/08/24 01:27:14;;;;;;;8.30;5.55;;;;;;;18.73;91.40;101701.56;10519117;28;20044;-74
2022/08/24 01:32:18;;;;;;;10.10;5.63;;;;;;;18.79;91.60;101687.25;10552222;28;20530;-74
2022/08/24 01:37:21;;;;;;;10.75;5.57;;;;;;;18.75;91.44;101693.75;10585383;28;20032;-74
2022/08/24 01:42:25;;;;;;;6.97;5.00;;;;;;;18.76;90.82;101689.84;10555579;28;20040;-72
2022/08/24 01:47:28;;;;;;;10.98;5.65;;;;;;;18.82;90.82;101702.50;10564070;28;20131;-72
2022/08/24 01:52:32;;;;;;;10.68;5.47;;;;;;;18.86;90.39;101704.34;10509912;28;20063;-73
2022/08/24 01:57:35;;;;;;;6.13;5.03;;;;;;;18.90;90.50;101697.00;10562951;28;20045;-74
2022/08/24 02:02:37;;;;;;;9.23;6.07;;;;;;;18.92;90.27;101688.38;10563284;28;20036;-74
2022/08/24 02:07:40;;;;;;;11.50;5.10;;;;;;;18.89;89.85;101689.78;10566606;28;20044;-73
2022/08/24 02:12:45;;;;;;;9.70;5.85;;;;;;;18.91;90.18;101681.97;10563385;28;20040;-74
2022/08/24 02:17:48;;;;;;;9.48;4.95;;;;;;;18.94;89.58;101680.53;10564746;28;20112;-74
2022/08/24 02:22:51;;;;;;;7.63;5.68;;;;;;;18.95;89.26;101680.22;10550024;28;20039;-74
2022/08/24 02:27:55;;;;;;;7.22;5.05;;;;;;;19.00;89.26;101684.84;10558271;28;20525;-74
2022/08/24 02:32:58;;;;;;;8.55;4.97;;;;;;;18.97;88.92;101685.47;10559979;28;20045;-74
2022/08/24 02:38:00;;;;;;;8.63;5.63;;;;;;;18.95;88.61;101691.34;10563995;28;20047;-74
2022/08/24 02:43:04;;;;;;;10.63;6.35;;;;;;;19.02;88.30;101690.91;10603016;28;20051;-74
2022/08/24 02:48:07;;;;;;;11.32;6.13;;;;;;;19.00;88.46;101690.41;10586883;28;20138;-74
2022/08/24 02:53:12;;;;;;;11.13;5.57;;;;;;;19.01;87.80;101692.06;10589189;28;20043;-74
2022/08/24 02:58:16;;;;;;;11.93;5.28;;;;;;;19.07;87.50;101690.78;10570458;28;20044;-73
2022/08/24 03:03:21;;;;;;;8.30;5.32;;;;;;;19.13;86.80;101697.91;10575152;28;20051;-74
2022/08/24 03:08:23;;;;;;;7.70;5.78;;;;;;;19.11;86.92;101697.41;10568881;28;20043;-74
2022/08/24 03:13:27;;;;;;;10.15;5.85;;;;;;;19.08;86.70;101697.19;10572951;28;20518;-73
2022/08/24 03:18:30;;;;;;;10.20;5.82;;;;;;;19.15;86.21;101692.03;10587543;28;20040;-74
2022/08/24 03:23:33;;;;;;;8.57;5.32;;;;;;;19.19;85.87;101693.03;10573620;28;20590;-74
2022/08/24 03:28:35;;;;;;;10.25;5.47;;;;;;;19.17;85.29;101698.09;10539373;28;20047;-73
2022/08/24 03:33:37;;;;;;;7.28;5.53;;;;;;;19.13;85.74;101699.88;10556500;28;20060;-73
2022/08/24 03:38:40;;;;;;;9.77;5.25;;;;;;;19.11;84.93;101693.78;10602241;28;20069;-74
2022/08/24 03:43:47;;;;;;;11.32;5.90;;;;;;;19.07;85.40;101692.75;10574884;28;20524;-74
2022/08/24 03:48:53;;;;;;;10.52;5.85;;;;;;;19.05;85.19;101695.84;10568616;28;20059;-73
2022/08/24 03:53:58;;;;;;;12.13;6.00;;;;;;;19.06;84.52;101688.31;10578199;28;20055;-79
2022/08/24 03:59:03;;;;;;;;;;;;;;;19.07;84.62;101689.97;10561406;28;20117;-74
2022/08/24 04:04:11;;;;;;;15.23;5.68;;;;;;;19.17;85.32;101703.66;10558345;28;19927;-73
2022/08/24 04:09:14;;;;;;;9.70;5.40;;;;;;;19.29;84.35;101690.03;10549226;28;20066;-73
2022/08/24 04:14:21;;;;;;;7.05;5.60;;;;;;;19.57;84.00;101710.25;10576313;28;20040;-75
2022/08/24 04:19:28;;;;;;;11.48;5.47;;;;;;;19.78;83.15;101716.13;10575938;28;20040;-72
2022/08/24 04:24:32;;;;;;;12.25;5.55;;;;;;;19.93;82.53;101707.38;10564383;28;20044;-72
2022/08/24 04:29:34;;;;;;;11.15;5.40;;;;;;;20.14;81.21;101705.72;10567519;28;20044;-72
2022/08/24 04:34:37;;;;;;;9.57;5.13;;;;;;;20.44;79.98;101700.47;10570986;28;20051;-72
2022/08/24 04:39:40;;;;;;;9.30;5.45;;;;;;;20.82;78.08;101713.88;10602417;28;20047;-72
2022/08/24 04:44:45;;;;;;;12.00;4.83;;;;;;;21.04;77.11;101703.44;10573548;28;20052;-72
2022/08/24 04:49:49;;;;;;;9.10;5.10;;;;;;;21.16;76.85;101697.19;10545419;28;20048;-72
2022/08/24 04:54:52;;;;;;;7.50;4.35;;;;;;;21.42;74.14;101696.41;10528982;28;20054;-72
2022/08/24 04:59:58;;;;;;;12.40;4.60;;;;;;;21.90;73.05;101704.59;10556907;28;20038;-72
2022/08/24 05:05:00;;;;;;;7.07;4.72;;;;;;;22.55;70.82;101690.22;10573861;28;20055;-72
2022/08/24 05:10:04;;;;;;;10.93;4.10;;;;;;;22.79;69.23;101695.19;10570341;28;20510;-72
2022/08/24 05:15:08;;;;;;;14.30;4.78;;;;;;;22.61;68.69;101684.44;10570491;28;20105;-72
2022/08/24 05:20:15;;;;;;;;;;;;;;;22.53;68.08;101686.94;10579936;28;20036;-72
2022/08/24 05:25:18;;;;;;;16.90;4.57;;;;;;;22.48;68.13;101686.31;10555854;28;19920;-72
2022/08/24 05:30:20;;;;;;;13.00;4.82;;;;;;;22.62;67.19;101688.88;10567950;28;20040;-72
2022/08/24 05:35:23;;;;;;;10.73;4.95;;;;;;;22.82;67.43;101682.53;10577036;28;20055;-72
2022/08/24 05:40:26;;;;;;;10.30;3.80;;;;;;;23.26;65.59;101695.09;10591745;28;20055;-72
2022/08/24 05:45:30;;;;;;;12.77;4.78;;;;;;;23.85;63.96;101674.44;10581250;28;20055;-72
2022/08/24 05:50:33;;;;;;;10.25;4.13;;;;;;;24.23;61.77;101679.78;10610989;28;20070;-73
2022/08/24 05:55:37;;;;;;;11.02;4.55;;;;;;;24.87;60.65;101667.88;10560094;28;20474;-73
2022/08/24 06:00:45;;;;;;;9.25;4.00;;;;;;;25.44;58.64;101678.03;10551599;28;20044;-73
2022/08/24 06:05:48;;;;;;;11.07;4.47;;;;;;;25.33;57.93;101672.09;10566755;28;20051;-72
2022/08/24 06:10:50;;;;;;;10.88;4.50;;;;;;;25.62;57.51;101667.31;10568223;28;20044;-73
2022/08/24 06:16:08;;;;;;;11.57;4.20;;;;;;;26.09;56.10;101671.06;10568469;28;20047;-72
2022/08/24 06:21:14;;;;;;;10.05;4.20;;;;;;;26.72;54.88;101659.75;10580506;28;20086;-73
2022/08/24 06:31:41;;;;;;;6.05;4.00;;;;;;;27.69;51.93;101668.34;10536791;28;20044;-71
2022/08/24 06:36:46;;;;;;;8.95;3.83;;;;;;;28.05;51.36;101664.19;10574479;28;20028;-71
2022/08/24 06:41:49;;;;;;;10.68;4.03;;;;;;;28.01;49.99;101673.78;10588288;28;20532;-71
2022/08/24 06:47:04;;;;;;;6.75;3.78;;;;;;;27.72;50.54;101667.59;10585669;28;20048;-74
2022/08/24 06:52:06;;;;;;;16.08;4.85;;;;;;;27.60;50.42;101681.84;10591437;28;20044;-73
2022/08/24 06:57:08;;;;;;;13.80;3.83;;;;;;;27.42;51.45;101675.81;10552336;28;20044;-73
2022/08/24 07:02:14;;;;;;;9.65;4.10;;;;;;;27.39;50.95;101676.56;10575619;28;20051;-73
2022/08/24 07:07:17;;;;;;;8.30;4.15;;;;;;;27.11;51.42;101675.97;10566182;28;20537;-73
2022/08/24 07:12:20;;;;;;;15.40;4.18;;;;;;;27.11;52.01;101687.25;10572470;28;20044;-74
2022/08/24 07:17:22;;;;;;;6.18;4.13;;;;;;;27.13;51.84;101682.88;10560534;28;20059;-75
2022/08/24 07:22:24;;;;;;;8.48;4.22;;;;;;;27.14;52.00;101676.06;10571324;28;20146;-73
2022/08/24 07:27:27;;;;;;;17.17;4.55;;;;;;;27.24;51.68;101680.25;10548835;28;20051;-72
2022/08/24 07:32:30;;;;;;;12.57;4.63;;;;;;;27.22;52.02;101677.81;10586600;28;20073;-73
2022/08/24 07:37:32;;;;;;;8.07;4.30;;;;;;;27.04;51.89;101676.63;10546712;28;20036;-73
2022/08/24 07:42:35;;;;;;;10.77;4.63;;;;;;;26.82;52.54;101666.84;10574354;28;20486;-74
2022/08/24 07:47:37;;;;;;;6.47;4.15;;;;;;;26.59;53.41;101660.25;10570054;28;20044;-76
2022/08/24 07:52:45;;;;;;;10.07;4.57;;;;;;;26.36;54.18;101658.09;10570851;28;20048;-77
2022/08/24 07:57:48;;;;;;;10.70;4.95;;;;;;;26.30;53.77;101681.22;10561255;28;20043;-74
2022/08/24 08:02:50;;;;;;;13.32;4.78;;;;;;;26.48;53.66;101676.88;10569570;28;20048;-73
2022/08/24 08:07:54;;;;;;;9.35;4.65;;;;;;;26.86;53.79;101676.19;10572057;28;20048;-73
2022/08/24 08:12:56;;;;;;;11.07;4.15;;;;;;;27.58;52.73;101662.47;10571858;28;20051;-73
2022/08/24 08:17:59;;;;;;;8.18;4.25;;;;;;;27.85;51.29;101657.78;10572675;28;20039;-73
2022/08/24 08:28:34;;;;;;;7.28;4.20;;;;;;;28.76;49.67;101665.38;10571509;28;20047;-73
2022/08/24 08:33:36;;;;;;;9.23;5.25;;;;;;;29.18;48.62;101669.25;10554839;28;20165;-73
2022/08/24 08:38:39;;;;;;;11.10;4.43;;;;;;;29.59;46.77;101673.00;10570822;28;20515;-73
2022/08/24 08:43:47;;;;;;;7.25;4.30;;;;;;;30.35;45.55;101676.22;10554703;28;20047;-73
2022/08/24 08:49:08;;;;;;;8.23;4.28;;;;;;;30.65;44.35;101678.09;10553805;28;20051;-73
2022/08/24 08:54:44;;;;;;;6.65;4.30;;;;;;;30.28;44.35;101679.81;10570573;28;20039;-73
2022/08/24 09:00:15;;;;;;;9.05;4.32;;;;;;;30.51;43.86;101670.28;10554881;28;20044;-73
2022/08/24 09:05:56;;;;;;;11.82;4.00;;;;;;;30.54;43.48;101673.13;10553484;28;20425;-73
2022/08/24 09:11:18;;;;;;;6.47;5.15;;;;;;;30.26;43.57;101675.75;10553827;28;20051;-72
2022/08/24 09:16:26;;;;;;;6.22;4.30;;;;;;;29.92;44.19;101681.47;10570315;28;20306;-72
2022/08/24 09:21:47;;;;;;;8.88;4.53;;;;;;;29.52;44.56;101685.06;10570525;28;20036;-72
2022/08/24 09:27:19;;;;;;;6.32;4.03;;;;;;;29.33;44.77;101671.03;10553129;28;20048;-72
2022/08/24 09:32:34;;;;;;;9.82;4.25;;;;;;;29.22;45.42;101676.56;10569398;28;20050;-72
2022/08/24 09:38:11;;;;;;;9.48;4.05;;;;;;;29.12;46.01;101669.56;10569193;28;20043;-72
2022/08/24 09:43:16;;;;;;;7.35;3.60;;;;;;;28.99;45.79;101673.03;10570325;28;20040;-72
2022/08/24 09:48:46;;;;;;;9.30;4.22;;;;;;;28.92;45.52;101687.03;10569874;28;20051;-72
2022/08/24 09:53:54;;;;;;;11.77;4.40;;;;;;;28.88;45.70;101678.50;10569444;28;20442;-72
2022/08/24 09:59:05;;;;;;;10.05;3.80;;;;;;;28.83;45.93;101687.28;10570537;28;20051;-73
2022/08/24 10:04:31;;;;;;;11.25;4.75;;;;;;;28.77;46.56;101683.97;10569513;28;20044;-72
2022/08/24 10:09:39;;;;;;;7.40;4.32;;;;;;;28.75;45.69;101686.34;10570268;28;20051;-72
2022/08/24 10:15:06;;;;;;;8.93;4.30;;;;;;;28.61;46.14;101691.78;10569441;28;20044;-72
2022/08/24 10:20:24;;;;;;;7.45;4.07;;;;;;;28.58;46.38;101680.44;10569530;28;20506;-72
2022/08/24 10:25:46;;;;;;;10.65;4.60;;;;;;;28.55;45.53;101687.66;10551469;28;20044;-72
2022/08/24 10:31:07;;;;;;;6.57;4.18;;;;;;;28.51;45.45;101687.59;10567951;28;20545;-72
2022/08/24 10:36:28;;;;;;;5.53;4.20;;;;;;;28.49;46.10;101690.00;10567365;28;20051;-72
2022/08/24 10:41:54;;;;;;;6.70;4.28;;;;;;;28.45;46.07;101685.47;10568880;28;20038;-72
2022/08/24 10:47:17;;;;;;;5.97;3.65;;;;;;;28.56;45.74;101694.94;10568817;28;20051;-73
2022/08/24 10:52:41;;;;;;;5.40;3.67;;;;;;;28.57;46.34;101692.91;10569132;28;20054;-72
2022/08/24 10:57:58;;;;;;;7.53;4.38;;;;;;;28.56;46.46;101692.09;10567464;28;20391;-72
2022/08/24 11:03:13;;;;;;;7.25;4.75;;;;;;;28.59;46.87;101693.34;10568585;28;20040;-72
2022/08/24 11:08:29;;;;;;;6.55;4.10;;;;;;;28.59;47.31;101680.06;10554258;28;20043;-72
2022/08/24 11:13:32;;;;;;;5.65;3.53;;;;;;;28.60;47.06;101678.03;10576629;28;20044;-72
2022/08/24 11:18:53;;;;;;;5.70;3.65;;;;;;;28.68;46.86;101676.97;10575607;28;20044;-72
2022/08/24 11:24:01;;;;;;;7.97;4.78;;;;;;;28.75;46.46;101668.59;10574654;28;20044;-72
2022/08/24 11:29:04;;;;;;;10.00;4.30;;;;;;;28.80;46.76;101668.25;10574193;28;20051;-72
2022/08/24 11:34:09;;;;;;;5.40;3.67;;;;;;;28.89;46.90;101663.19;10575234;28;20051;-72
2022/08/24 11:39:21;;;;;;;11.77;4.03;;;;;;;28.96;46.58;101657.63;10573706;28;20047;-72
2022/08/24 11:44:49;;;;;;;6.95;4.30;;;;;;;28.96;46.00;101660.44;10575179;28;20044;-72
2022/08/24 11:50:14;;;;;;;7.63;4.95;;;;;;;28.98;46.05;101654.41;10573091;28;20040;-72
2022/08/24 11:55:24;;;;;;;9.53;5.03;;;;;;;28.95;45.71;101656.00;10574707;28;20498;-72
2022/08/24 12:00:55;;;;;;;7.05;3.65;;;;;;;28.94;44.45;101654.38;10573327;28;20067;-72
2022/08/24 12:06:06;;;;;;;8.25;4.57;;;;;;;28.96;44.51;101643.50;10567939;28;20055;-72
2022/08/24 12:11:25;;;;;;;6.63;4.47;;;;;;;28.90;45.00;101635.75;10572676;28;20052;-72
2022/08/24 12:16:34;;;;;;;6.60;3.63;;;;;;;28.85;44.72;101634.03;10572657;28;20032;-72
2022/08/24 12:21:38;;;;;;;8.88;4.00;;;;;;;28.85;45.12;101627.59;10573464;28;20047;-72
2022/08/24 12:26:55;;;;;;;7.18;4.45;;;;;;;28.92;44.87;101622.88;10571856;28;20051;-72
2022/08/24 12:32:02;;;;;;;6.75;4.22;;;;;;;29.00;45.24;101618.94;10555193;28;20458;-72
2022/08/24 12:37:27;;;;;;;4.20;3.63;;;;;;;29.11;44.96;101619.88;10571145;28;20036;-72
2022/08/24 12:42:46;;;;;;;7.05;3.92;;;;;;;29.13;44.28;101620.31;10560631;28;20494;-72
2022/08/24 12:47:53;;;;;;;6.78;3.95;;;;;;;29.18;44.30;101604.22;10572215;28;20074;-72
2022/08/24 12:53:20;;;;;;;6.60;3.58;;;;;;;29.19;44.64;101612.31;10570820;28;20048;-72
2022/08/24 12:58:44;;;;;;;6.45;3.63;;;;;;;29.19;44.60;101609.50;10569701;28;20068;-73
2022/08/24 13:04:05;;;;;;;7.28;3.83;;;;;;;29.17;44.67;101596.94;10567097;28;20036;-72
2022/08/24 13:09:47;;;;;;;6.40;3.83;;;;;;;29.11;44.92;101600.09;10570884;28;20070;-72
2022/08/24 13:14:49;;;;;;;6.32;4.07;;;;;;;29.04;43.52;101602.03;10570465;28;20056;-73
2022/08/24 13:20:22;;;;;;;3.58;3.05;;;;;;;28.97;43.37;101601.91;10571623;28;20046;-72
2022/08/24 13:25:41;;;;;;;8.82;3.30;;;;;;;28.97;43.62;101607.56;10570214;28;20056;-72
2022/08/24 13:30:52;;;;;;;5.78;3.92;;;;;;;28.91;43.15;101609.94;10568974;28;20421;-72
2022/08/24 13:36:02;;;;;;;5.22;3.38;;;;;;;28.90;42.03;101596.19;10571328;28;20434;-72
2022/08/24 13:41:10;;;;;;;5.18;3.25;;;;;;;28.90;42.04;101590.53;10569668;28;20040;-72
2022/08/24 13:46:47;;;;;;;5.25;3.40;;;;;;;28.94;42.01;101594.22;10568749;28;20055;-72
2022/08/24 13:52:12;;;;;;;6.53;3.75;;;;;;;28.98;41.11;101587.41;10569574;28;20506;-72
2022/08/24 13:57:38;;;;;;;5.32;2.88;;;;;;;29.00;41.50;101593.50;10552197;28;20488;-72
2022/08/24 14:03:17;;;;;;;5.65;3.35;;;;;;;29.01;40.87;101588.69;10551764;28;20047;-72
2022/08/24 14:08:52;;;;;;;5.55;3.38;;;;;;;29.03;40.78;101592.75;10568769;28;20418;-72
2022/08/24 14:14:19;;;;;;;6.97;3.40;;;;;;;29.06;40.33;101577.03;10569683;28;20067;-72
2022/08/24 14:19:48;;;;;;;4.10;3.22;;;;;;;29.12;40.35;101586.78;10568435;28;20113;-72
2022/08/24 14:24:55;;;;;;;7.40;3.50;;;;;;;29.16;39.44;101587.66;10569532;28;20059;-72
2022/08/24 14:30:26;;;;;;;9.75;3.70;;;;;;;29.16;39.86;101584.00;10570267;28;20422;-72
2022/08/24 14:35:40;;;;;;;9.48;2.97;;;;;;;29.13;39.85;101586.38;10569240;28;20056;-72
2022/08/24 14:41:04;;;;;;;8.55;3.17;;;;;;;29.11;40.12;101576.66;10570958;28;20131;-72
2022/08/24 14:46:23;;;;;;;4.10;3.33;;;;;;;29.05;39.47;101587.50;10577810;28;20051;-72
2022/08/24 14:51:55;;;;;;;4.95;3.05;;;;;;;28.96;38.80;101589.00;10576802;28;20052;-72
2022/08/24 14:57:26;;;;;;;6.72;3.40;;;;;;;28.88;39.44;101582.44;10558800;28;20039;-72
2022/08/24 15:02:28;;;;;;;8.10;3.55;;;;;;;28.79;39.25;101581.88;10576469;28;20044;-72
2022/08/24 15:07:35;;;;;;;5.05;3.30;;;;;;;28.73;39.50;101574.94;10575054;28;20048;-72
2022/08/24 15:12:53;;;;;;;5.93;3.60;;;;;;;28.66;40.00;101578.50;10574747;28;20040;-72
2022/08/24 15:18:17;;;;;;;5.65;3.33;;;;;;;28.61;39.64;101578.00;10575184;28;20048;-72
2022/08/24 15:23:44;;;;;;;6.20;3.75;;;;;;;28.54;40.19;101573.06;10576068;28;20036;-72
2022/08/24 15:28:50;;;;;;;6.13;3.40;;;;;;;28.48;40.11;101581.06;10575289;28;20032;-72
2022/08/24 15:33:59;;;;;;;5.13;3.17;;;;;;;28.42;39.86;101571.28;10574626;28;20047;-72
2022/08/24 15:39:04;;;;;;;4.13;3.10;;;;;;;28.40;40.54;101573.66;10573754;28;20036;-72
2022/08/24 15:44:12;;;;;;;4.00;3.13;;;;;;;28.38;40.86;101566.78;10574773;28;20051;-72
2022/08/24 15:49:22;;;;;;;8.48;3.53;;;;;;;28.34;41.22;101574.38;10573673;28;20529;-72
2022/08/24 15:54:30;;;;;;;4.28;3.35;;;;;;;28.33;41.49;101573.56;10573552;28;20046;-72
2022/08/24 15:59:38;;;;;;;6.63;3.72;;;;;;;28.31;42.50;101570.31;10572641;28;20051;-72
2022/08/24 16:04:45;;;;;;;5.03;3.67;;;;;;;28.29;42.36;101569.88;10574022;28;20040;-72
2022/08/24 16:09:47;;;;;;;4.30;3.05;;;;;;;28.27;42.54;101580.72;10555580;28;20040;-72
2022/08/24 16:15:06;;;;;;;6.28;3.65;;;;;;;28.21;42.72;101580.22;10572701;28;20052;-72
2022/08/24 16:20:27;;;;;;;7.80;3.47;;;;;;;28.16;43.02;101579.72;10573398;28;20126;-72
2022/08/24 16:25:32;;;;;;;4.95;3.90;;;;;;;28.08;42.83;101577.97;10555238;28;20040;-72
2022/08/24 16:30:40;;;;;;;5.93;3.58;;;;;;;28.01;43.14;101577.84;10573006;28;20437;-72
2022/08/24 16:35:42;;;;;;;7.38;3.25;;;;;;;27.93;43.09;101577.72;10573078;28;20521;-72
2022/08/24 16:40:44;;;;;;;5.50;3.70;;;;;;;27.88;44.05;101589.31;10572364;28;20044;-72
2022/08/24 16:45:46;;;;;;;4.40;3.50;;;;;;;27.79;44.52;101585.16;10571127;28;20055;-72
2022/08/24 16:50:50;;;;;;;9.85;3.97;;;;;;;27.71;44.09;101589.81;10572707;28;20051;-73
2022/08/24 16:55:52;;;;;;;7.25;3.78;;;;;;;27.64;44.44;101584.06;10571653;28;20060;-73
2022/08/24 17:00:54;;;;;;;6.65;3.72;;;;;;;27.56;44.85;101582.25;10571553;28;20444;-73
2022/08/24 17:05:57;;;;;;;6.50;3.85;;;;;;;27.48;44.87;101586.97;10570564;28;20305;-73
2022/08/24 17:10:59;;;;;;;11.02;4.40;;;;;;;27.41;44.84;101589.63;10571273;28;20413;-73
2022/08/24 17:16:02;;;;;;;6.72;3.88;;;;;;;27.33;45.05;101588.69;10571845;28;20064;-73
2022/08/24 17:21:04;;;;;;;6.53;3.97;;;;;;;27.27;45.55;101593.00;10569667;28;20047;-72
2022/08/24 17:26:10;;;;;;;6.63;4.47;;;;;;;27.22;45.52;101592.47;10571599;28;20413;-73
2022/08/24 17:31:12;;;;;;;9.38;4.25;;;;;;;27.19;46.53;101594.03;10571218;28;20075;-71
2022/08/24 17:36:16;;;;;;;6.35;3.92;;;;;;;27.14;46.96;101594.34;10570623;28;20056;-73
2022/08/24 17:41:18;;;;;;;14.13;5.00;;;;;;;27.10;47.15;101601.91;10569478;28;20050;-73
2022/08/24 17:46:21;;;;;;;8.00;3.95;;;;;;;27.06;47.17;101597.34;10569741;28;20056;-71
2022/08/24 17:51:23;;;;;;;6.20;4.35;;;;;;;26.99;47.33;101596.00;10568797;28;20043;-73
2022/08/24 17:56:29;;;;;;;5.95;4.13;;;;;;;26.94;47.94;101601.13;10569734;28;20044;-72
2022/08/24 18:01:31;;;;;;;6.18;4.50;;;;;;;26.87;48.57;101593.31;10568753;28;20043;-72
2022/08/24 18:06:33;;;;;;;10.65;4.43;;;;;;;26.80;48.84;101584.72;10569352;28;20047;-73
2022/08/24 18:11:36;;;;;;;7.32;3.60;;;;;;;26.71;47.87;101584.91;10568932;28;20414;-72
2022/08/24 18:16:38;;;;;;;7.75;4.25;;;;;;;26.66;48.58;101582.41;10572156;28;20039;-72
2022/08/24 18:21:40;;;;;;;6.50;4.60;;;;;;;26.60;49.15;101585.88;10578482;28;20044;-72
2022/08/24 18:26:43;;;;;;;8.27;4.43;;;;;;;26.54;49.45;101582.53;10578239;28;20055;-72
2022/08/24 18:31:46;;;;;;;7.22;4.43;;;;;;;26.49;48.74;101582.00;10576409;28;20516;-72
2022/08/24 18:36:48;;;;;;;5.88;4.45;;;;;;;26.42;48.50;101579.84;10577300;28;20052;-72
2022/08/24 18:41:51;;;;;;;5.95;4.13;;;;;;;26.36;49.38;101592.53;10578276;28;20052;-72
2022/08/24 18:46:54;;;;;;;7.25;4.85;;;;;;;26.31;48.95;101584.38;10577089;28;20048;-72
2022/08/24 18:51:57;;;;;;;9.23;4.20;;;;;;;26.26;49.73;101584.66;10577614;28;20044;-72
2022/08/24 18:56:59;;;;;;;6.72;4.60;;;;;;;26.20;49.27;101586.09;10576577;28;20051;-72
2022/08/24 19:02:29;;;;;;;7.82;4.50;;;;;;;26.13;49.00;101587.56;10576471;28;20410;-72
2022/08/24 19:07:35;;;;;;;8.50;4.43;;;;;;;26.08;48.82;101587.84;10574993;28;20051;-72
2022/08/24 19:12:40;;;;;;;8.30;4.07;;;;;;;26.04;48.94;101601.00;10576476;28;20054;-73
2022/08/24 19:17:42;;;;;;;8.77;4.60;;;;;;;26.01;49.53;101596.09;10575870;28;20426;-72
2022/08/24 19:22:44;;;;;;;8.13;4.85;;;;;;;25.99;49.05;101592.00;10576219;28;20051;-72
2022/08/24 19:27:47;;;;;;;7.85;4.75;;;;;;;25.96;49.13;101593.56;10573243;28;20048;-72
2022/08/24 19:32:49;;;;;;;10.55;5.90;;;;;;;25.92;49.02;101589.03;10575874;28;20390;-72
2022/08/24 19:37:51;;;;;;;9.90;6.20;;;;;;;25.87;50.25;101592.94;10574289;28;20055;-72
2022/08/24 19:42:54;;;;;;;10.32;6.43;;;;;;;25.82;49.50;101598.81;10574670;28;20051;-72
2022/08/24 19:47:56;;;;;;;10.57;6.60;;;;;;;25.76;49.61;101595.47;10575070;28;20410;-72
2022/08/24 19:53:00;;;;;;;16.35;7.63;;;;;;;25.66;51.32;101603.56;10574215;28;20039;-72
2022/08/24 19:58:29;;;;;;;8.80;5.90;;;;;;;25.47;51.76;101591.03;10574862;28;20056;-72
2022/08/24 20:03:31;;;;;;;9.93;6.40;;;;;;;25.37;51.52;101596.38;10574215;28;20032;-72
2022/08/24 20:08:33;;;;;;;10.68;5.90;;;;;;;25.29;51.79;101588.88;10574306;28;20047;-73
2022/08/24 20:13:35;;;;;;;9.32;5.57;;;;;;;25.26;52.29;101587.63;10573474;28;20059;-72
2022/08/24 20:18:38;;;;;;;9.80;6.13;;;;;;;25.25;51.87;101586.00;10572381;28;20453;-72
2022/08/24 20:23:42;;;;;;;13.30;6.70;;;;;;;25.17;53.02;101579.38;10573747;28;20051;-72
2022/08/24 20:28:48;;;;;;;9.38;6.70;;;;;;;25.14;52.31;101584.84;10573848;28;20524;-72
2022/08/24 20:33:51;;;;;;;16.53;6.40;;;;;;;25.10;52.30;101581.13;10572391;28;20044;-72
2022/08/24 20:38:55;;;;;;;7.45;4.95;;;;;;;25.06;51.88;101583.84;10571350;28;20502;-73
2022/08/24 20:43:58;;;;;;;8.10;5.68;;;;;;;25.03;52.33;101576.13;10573345;28;20047;-73
2022/08/24 20:49:00;;;;;;;8.90;5.97;;;;;;;24.98;52.22;101578.34;10572389;28;20070;-73
2022/08/24 20:54:03;;;;;;;11.70;5.93;;;;;;;24.95;52.50;101579.88;10572519;28;20055;-73
2022/08/24 20:59:08;;;;;;;8.40;6.13;;;;;;;24.89;51.29;101582.13;10571243;28;20043;-73
2022/08/24 21:04:10;;;;;;;6.95;4.70;;;;;;;24.85;52.07;101580.38;10570682;28;20044;-73
2022/08/24 21:09:13;;;;;;;9.70;6.22;;;;;;;24.80;51.67;101575.81;10571063;28;20101;-73
2022/08/24 21:14:15;;;;;;;10.35;5.25;;;;;;;24.76;51.72;101577.69;10570136;28;20406;-73
2022/08/24 21:19:17;;;;;;;9.98;6.00;;;;;;;24.73;51.80;101570.00;10569859;28;20043;-73
2022/08/24 21:24:19;;;;;;;7.45;5.40;;;;;;;24.69;51.21;101573.88;10571719;28;20056;-73
2022/08/24 21:29:23;;;;;;;7.00;4.82;;;;;;;24.66;50.38;101564.19;10571473;28;20059;-72
2022/08/24 21:34:40;;;;;;;6.38;4.63;;;;;;;24.64;50.78;101572.09;10569664;28;20052;-72
2022/08/24 21:39:45;;;;;;;9.10;5.15;;;;;;;24.61;50.46;101564.41;10570603;28;20043;-73
2022/08/24 21:44:47;;;;;;;9.65;5.63;;;;;;;24.58;50.76;101562.31;10552428;28;20044;-73
2022/08/24 21:49:50;;;;;;;10.25;4.88;;;;;;;24.53;51.49;101563.38;10569519;28;20063;-73
2022/08/24 21:54:55;;;;;;;7.65;4.38;;;;;;;24.52;50.69;101574.97;10569802;28;20035;-72
2022/08/24 21:59:57;;;;;;;6.70;5.13;;;;;;;24.48;50.76;101574.03;10570512;28;20040;-73
2022/08/24 22:04:59;;;;;;;8.85;5.18;;;;;;;24.43;52.74;101568.66;10569736;28;20044;-72
2022/08/24 22:10:03;;;;;;;10.60;5.55;;;;;;;24.38;52.55;101563.28;10569653;28;20040;-72
2022/08/24 22:15:11;;;;;;;8.85;5.60;;;;;;;24.28;52.95;101556.94;10568461;28;20055;-72
2022/08/24 22:20:15;;;;;;;10.80;5.80;;;;;;;24.23;53.68;101551.56;10569713;28;20499;-72
2022/08/24 22:25:17;;;;;;;8.73;5.50;;;;;;;24.17;53.55;101550.19;10568373;28;20062;-72
2022/08/24 22:30:19;;;;;;;6.75;5.05;;;;;;;24.14;53.24;101542.47;10568162;28;20044;-72
2022/08/24 22:35:21;;;;;;;10.30;6.03;;;;;;;24.06;53.79;101541.41;10569224;28;20498;-72
2022/08/24 22:40:23;;;;;;;9.15;5.55;;;;;;;24.01;54.01;101552.88;10569226;28;20044;-73
2022/08/24 22:45:25;;;;;;;10.02;6.05;;;;;;;23.98;53.80;101541.53;10568944;28;20506;-72
2022/08/24 22:50:31;;;;;;;10.93;6.05;;;;;;;23.92;55.88;101551.34;10568945;28;20043;-73
2022/08/24 22:55:33;;;;;;;12.30;6.43;;;;;;;23.79;55.88;101532.91;10568264;28;20040;-73
2022/08/24 23:00:37;;;;;;;10.82;6.35;;;;;;;23.72;55.79;101528.66;10569886;28;20106;-73
2022/08/24 23:05:39;;;;;;;9.65;5.97;;;;;;;23.69;55.47;101532.16;10575075;28;20075;-73
2022/08/24 23:10:42;;;;;;;12.95;5.63;;;;;;;23.70;54.99;101533.00;10576287;28;20036;-73
2022/08/24 23:15:44;;;;;;;8.23;5.20;;;;;;;23.70;55.57;101536.59;10576207;28;20070;-72
2022/08/24 23:20:46;;;;;;;8.50;4.80;;;;;;;23.70;54.22;101530.19;10575884;28;20551;-73
2022/08/24 23:25:48;;;;;;;8.70;5.28;;;;;;;23.66;53.66;101530.06;10576600;28;20048;-73
2022/08/24 23:30:50;;;;;;;7.32;4.50;;;;;;;23.61;54.24;101533.09;10576413;28;20055;-73
2022/08/24 23:35:52;;;;;;;7.07;5.05;;;;;;;23.59;53.74;101521.41;10575819;28;20047;-73
2022/08/24 23:40:55;;;;;;;7.40;5.18;;;;;;;23.58;53.35;101528.19;10575198;28;20042;-73
2022/08/24 23:45:57;;;;;;;7.20;5.20;;;;;;;23.53;54.00;101531.19;10575328;28;20056;-72